sensor_id;sensor_type;location;lat;lon;timestamp;P1;durP1;ratioP1;P2;durP2;ratioP2
51459;SDS011;37534;39.772;2.718;2023-05-07T00:01:06;3.00;;;2.03;;
51459;SDS011;37534;39.772;2.718;2023-05-07T00:03:31;4.45;;;1.80;;
51459;SDS011;37534;39.772;2.718;2023-05-07T00:05:57;2.70;;;2.22;;
51459;SDS011;37534;39.772;2.718;2023-05-07T00:08:23;1.70;;;1.60;;
51459;SDS011;37534;39.772;2.718;2023-05-07T00:10:49;9.02;;;2.75;;
51459;SDS011;37534;39.772;2.718;2023-05-07T00:13:14;1.83;;;1.73;;
51459;SDS011;37534;39.772;2.718;2023-05-07T00:15:40;5.40;;;2.38;;
51459;SDS011;37534;39.772;2.718;2023-05-07T00:18:05;1.63;;;1.52;;
51459;SDS011;37534;39.772;2.718;2023-05-07T00:20:31;2.70;;;1.95;;
51459;SDS011;37534;39.772;2.718;2023-05-07T00:22:56;6.38;;;1.52;;
51459;SDS011;37534;39.772;2.718;2023-05-07T00:25:22;2.60;;;1.75;;
51459;SDS011;37534;39.772;2.718;2023-05-07T00:27:47;1.75;;;1.15;;
51459;SDS011;37534;39.772;2.718;2023-05-07T00:30:13;1.50;;;1.40;;
51459;SDS011;37534;39.772;2.718;2023-05-07T00:32:41;3.03;;;1.45;;
51459;SDS011;37534;39.772;2.718;2023-05-07T00:35:10;1.92;;;1.45;;
51459;SDS011;37534;39.772;2.718;2023-05-07T00:37:36;1.75;;;1.65;;
51459;SDS011;37534;39.772;2.718;2023-05-07T00:40:02;2.80;;;1.30;;
51459;SDS011;37534;39.772;2.718;2023-05-07T00:42:29;1.63;;;1.35;;
51459;SDS011;37534;39.772;2.718;2023-05-07T00:44:57;2.20;;;1.23;;
51459;SDS011;37534;39.772;2.718;2023-05-07T00:47:23;3.95;;;1.48;;
51459;SDS011;37534;39.772;2.718;2023-05-07T00:49:50;4.40;;;1.50;;
51459;SDS011;37534;39.772;2.718;2023-05-07T00:52:25;3.55;;;1.23;;
51459;SDS011;37534;39.772;2.718;2023-05-07T00:54:51;3.97;;;1.90;;
51459;SDS011;37534;39.772;2.718;2023-05-07T00:57:18;3.92;;;2.28;;
51459;SDS011;37534;39.772;2.718;2023-05-07T00:59:46;2.15;;;1.80;;
51459;SDS011;37534;39.772;2.718;2023-05-07T01:02:12;4.68;;;1.52;;
51459;SDS011;37534;39.772;2.718;2023-05-07T01:04:37;3.67;;;1.77;;
51459;SDS011;37534;39.772;2.718;2023-05-07T01:07:03;1.90;;;1.40;;
51459;SDS011;37534;39.772;2.718;2023-05-07T01:09:29;2.65;;;1.63;;
51459;SDS011;37534;39.772;2.718;2023-05-07T01:11:55;6.88;;;2.08;;
51459;SDS011;37534;39.772;2.718;2023-05-07T01:14:22;4.63;;;1.90;;
51459;SDS011;37534;39.772;2.718;2023-05-07T01:16:48;2.60;;;1.55;;
51459;SDS011;37534;39.772;2.718;2023-05-07T01:19:16;2.03;;;1.58;;
51459;SDS011;37534;39.772;2.718;2023-05-07T01:21:47;2.22;;;1.67;;
51459;SDS011;37534;39.772;2.718;2023-05-07T01:24:14;4.07;;;1.90;;
51459;SDS011;37534;39.772;2.718;2023-05-07T01:26:40;2.15;;;1.90;;
51459;SDS011;37534;39.772;2.718;2023-05-07T01:29:07;3.97;;;2.25;;
51459;SDS011;37534;39.772;2.718;2023-05-07T01:31:32;3.35;;;1.90;;
51459;SDS011;37534;39.772;2.718;2023-05-07T01:33:59;5.45;;;2.08;;
51459;SDS011;37534;39.772;2.718;2023-05-07T01:36:27;3.97;;;2.40;;
51459;SDS011;37534;39.772;2.718;2023-05-07T01:38:55;2.63;;;2.17;;
51459;SDS011;37534;39.772;2.718;2023-05-07T01:41:22;1.90;;;1.65;;
51459;SDS011;37534;39.772;2.718;2023-05-07T01:43:48;1.80;;;1.70;;
51459;SDS011;37534;39.772;2.718;2023-05-07T01:46:16;5.05;;;1.77;;
51459;SDS011;37534;39.772;2.718;2023-05-07T01:48:43;2.40;;;2.20;;
51459;SDS011;37534;39.772;2.718;2023-05-07T01:51:11;7.25;;;2.30;;
51459;SDS011;37534;39.772;2.718;2023-05-07T01:53:37;6.95;;;2.20;;
51459;SDS011;37534;39.772;2.718;2023-05-07T01:56:03;4.90;;;2.28;;
51459;SDS011;37534;39.772;2.718;2023-05-07T01:58:29;2.45;;;1.80;;
51459;SDS011;37534;39.772;2.718;2023-05-07T02:00:55;2.00;;;1.77;;
51459;SDS011;37534;39.772;2.718;2023-05-07T02:03:20;1.83;;;1.73;;
51459;SDS011;37534;39.772;2.718;2023-05-07T02:05:46;3.25;;;1.60;;
51459;SDS011;37534;39.772;2.718;2023-05-07T02:08:11;3.03;;;1.83;;
51459;SDS011;37534;39.772;2.718;2023-05-07T02:10:36;4.45;;;2.40;;
51459;SDS011;37534;39.772;2.718;2023-05-07T02:13:02;3.13;;;2.38;;
51459;SDS011;37534;39.772;2.718;2023-05-07T02:15:27;5.13;;;2.47;;
51459;SDS011;37534;39.772;2.718;2023-05-07T02:18:00;3.85;;;2.20;;
51459;SDS011;37534;39.772;2.718;2023-05-07T02:20:27;7.13;;;3.33;;
51459;SDS011;37534;39.772;2.718;2023-05-07T02:22:52;2.97;;;2.33;;
51459;SDS011;37534;39.772;2.718;2023-05-07T02:25:18;3.50;;;1.85;;
51459;SDS011;37534;39.772;2.718;2023-05-07T02:27:43;4.10;;;2.42;;
51459;SDS011;37534;39.772;2.718;2023-05-07T02:30:09;2.78;;;2.05;;
51459;SDS011;37534;39.772;2.718;2023-05-07T02:32:35;4.15;;;2.17;;
51459;SDS011;37534;39.772;2.718;2023-05-07T02:35:01;5.40;;;2.33;;
51459;SDS011;37534;39.772;2.718;2023-05-07T02:37:26;3.78;;;2.33;;
51459;SDS011;37534;39.772;2.718;2023-05-07T02:39:52;3.70;;;1.73;;
51459;SDS011;37534;39.772;2.718;2023-05-07T02:42:17;4.88;;;2.35;;
51459;SDS011;37534;39.772;2.718;2023-05-07T02:44:43;1.95;;;1.77;;
51459;SDS011;37534;39.772;2.718;2023-05-07T02:47:08;2.65;;;2.40;;
51459;SDS011;37534;39.772;2.718;2023-05-07T02:49:34;2.60;;;1.90;;
51459;SDS011;37534;39.772;2.718;2023-05-07T02:52:00;2.10;;;2.00;;
51459;SDS011;37534;39.772;2.718;2023-05-07T02:54:25;2.58;;;2.38;;
51459;SDS011;37534;39.772;2.718;2023-05-07T02:56:51;5.18;;;2.95;;
51459;SDS011;37534;39.772;2.718;2023-05-07T02:59:16;3.20;;;1.98;;
51459;SDS011;37534;39.772;2.718;2023-05-07T03:01:42;3.22;;;2.40;;
51459;SDS011;37534;39.772;2.718;2023-05-07T03:04:10;3.33;;;2.63;;
51459;SDS011;37534;39.772;2.718;2023-05-07T03:06:36;2.72;;;2.00;;
51459;SDS011;37534;39.772;2.718;2023-05-07T03:09:01;3.83;;;2.45;;
51459;SDS011;37534;39.772;2.718;2023-05-07T03:11:27;2.50;;;2.13;;
51459;SDS011;37534;39.772;2.718;2023-05-07T03:13:52;3.13;;;2.65;;
51459;SDS011;37534;39.772;2.718;2023-05-07T03:16:18;9.82;;;2.55;;
51459;SDS011;37534;39.772;2.718;2023-05-07T03:18:43;5.43;;;2.10;;
51459;SDS011;37534;39.772;2.718;2023-05-07T03:21:09;2.47;;;2.05;;
51459;SDS011;37534;39.772;2.718;2023-05-07T03:23:34;2.45;;;2.15;;
51459;SDS011;37534;39.772;2.718;2023-05-07T03:26:00;3.83;;;2.40;;
51459;SDS011;37534;39.772;2.718;2023-05-07T03:28:26;1.92;;;1.83;;
51459;SDS011;37534;39.772;2.718;2023-05-07T03:30:51;2.08;;;1.70;;
51459;SDS011;37534;39.772;2.718;2023-05-07T03:33:17;7.60;;;2.28;;
51459;SDS011;37534;39.772;2.718;2023-05-07T03:35:43;1.73;;;1.63;;
51459;SDS011;37534;39.772;2.718;2023-05-07T03:38:08;2.63;;;2.30;;
51459;SDS011;37534;39.772;2.718;2023-05-07T03:40:34;3.00;;;2.05;;
51459;SDS011;37534;39.772;2.718;2023-05-07T03:43:00;2.28;;;2.08;;
51459;SDS011;37534;39.772;2.718;2023-05-07T03:45:25;1.48;;;1.38;;
51459;SDS011;37534;39.772;2.718;2023-05-07T03:47:51;2.15;;;1.75;;
51459;SDS011;37534;39.772;2.718;2023-05-07T03:50:17;3.40;;;2.47;;
51459;SDS011;37534;39.772;2.718;2023-05-07T03:52:42;2.28;;;2.05;;
51459;SDS011;37534;39.772;2.718;2023-05-07T03:55:08;5.88;;;2.75;;
51459;SDS011;37534;39.772;2.718;2023-05-07T03:57:33;2.78;;;1.77;;
51459;SDS011;37534;39.772;2.718;2023-05-07T03:59:59;2.95;;;2.55;;
51459;SDS011;37534;39.772;2.718;2023-05-07T04:02:24;3.38;;;2.20;;
51459;SDS011;37534;39.772;2.718;2023-05-07T04:04:50;2.33;;;1.67;;
51459;SDS011;37534;39.772;2.718;2023-05-07T04:07:15;3.60;;;2.05;;
51459;SDS011;37534;39.772;2.718;2023-05-07T04:09:41;2.08;;;1.98;;
51459;SDS011;37534;39.772;2.718;2023-05-07T04:12:07;2.53;;;1.92;;
51459;SDS011;37534;39.772;2.718;2023-05-07T04:14:32;5.57;;;2.67;;
51459;SDS011;37534;39.772;2.718;2023-05-07T04:16:58;8.35;;;3.13;;
51459;SDS011;37534;39.772;2.718;2023-05-07T04:19:24;2.17;;;2.08;;
51459;SDS011;37534;39.772;2.718;2023-05-07T04:21:50;3.28;;;2.33;;
51459;SDS011;37534;39.772;2.718;2023-05-07T04:24:15;2.47;;;2.28;;
51459;SDS011;37534;39.772;2.718;2023-05-07T04:26:41;6.32;;;3.03;;
51459;SDS011;37534;39.772;2.718;2023-05-07T04:29:07;2.17;;;2.08;;
51459;SDS011;37534;39.772;2.718;2023-05-07T04:31:32;3.38;;;2.70;;
51459;SDS011;37534;39.772;2.718;2023-05-07T04:33:58;5.50;;;4.97;;
51459;SDS011;37534;39.772;2.718;2023-05-07T04:36:23;4.03;;;2.80;;
51459;SDS011;37534;39.772;2.718;2023-05-07T04:38:52;2.80;;;2.20;;
51459;SDS011;37534;39.772;2.718;2023-05-07T04:41:18;6.40;;;2.50;;
51459;SDS011;37534;39.772;2.718;2023-05-07T04:43:44;4.32;;;2.30;;
51459;SDS011;37534;39.772;2.718;2023-05-07T04:46:10;2.38;;;2.17;;
51459;SDS011;37534;39.772;2.718;2023-05-07T04:48:36;2.60;;;2.03;;
51459;SDS011;37534;39.772;2.718;2023-05-07T04:51:01;2.63;;;2.17;;
51459;SDS011;37534;39.772;2.718;2023-05-07T04:53:27;1.95;;;1.85;;
51459;SDS011;37534;39.772;2.718;2023-05-07T04:55:56;2.78;;;2.58;;
51459;SDS011;37534;39.772;2.718;2023-05-07T04:58:22;4.60;;;2.25;;
51459;SDS011;37534;39.772;2.718;2023-05-07T05:00:48;3.63;;;2.58;;
51459;SDS011;37534;39.772;2.718;2023-05-07T05:03:14;1.98;;;1.88;;
51459;SDS011;37534;39.772;2.718;2023-05-07T05:05:40;2.13;;;2.00;;
51459;SDS011;37534;39.772;2.718;2023-05-07T05:08:05;2.70;;;2.00;;
51459;SDS011;37534;39.772;2.718;2023-05-07T05:10:31;2.20;;;2.00;;
51459;SDS011;37534;39.772;2.718;2023-05-07T05:12:57;4.15;;;2.50;;
51459;SDS011;37534;39.772;2.718;2023-05-07T05:15:22;4.68;;;2.88;;
51459;SDS011;37534;39.772;2.718;2023-05-07T05:17:48;4.38;;;2.80;;
51459;SDS011;37534;39.772;2.718;2023-05-07T05:20:14;6.55;;;2.42;;
51459;SDS011;37534;39.772;2.718;2023-05-07T05:22:40;3.10;;;2.47;;
51459;SDS011;37534;39.772;2.718;2023-05-07T05:25:06;2.72;;;2.47;;
51459;SDS011;37534;39.772;2.718;2023-05-07T05:27:32;4.47;;;2.17;;
51459;SDS011;37534;39.772;2.718;2023-05-07T05:29:57;4.28;;;2.58;;
51459;SDS011;37534;39.772;2.718;2023-05-07T05:32:23;3.40;;;2.08;;
51459;SDS011;37534;39.772;2.718;2023-05-07T05:34:48;4.13;;;2.42;;
51459;SDS011;37534;39.772;2.718;2023-05-07T05:37:14;2.85;;;2.47;;
51459;SDS011;37534;39.772;2.718;2023-05-07T05:39:39;2.13;;;1.90;;
51459;SDS011;37534;39.772;2.718;2023-05-07T05:42:05;5.07;;;2.03;;
51459;SDS011;37534;39.772;2.718;2023-05-07T05:44:30;1.83;;;1.73;;
51459;SDS011;37534;39.772;2.718;2023-05-07T05:46:56;3.13;;;2.75;;
51459;SDS011;37534;39.772;2.718;2023-05-07T05:49:24;2.00;;;1.90;;
51459;SDS011;37534;39.772;2.718;2023-05-07T05:51:50;5.35;;;2.15;;
51459;SDS011;37534;39.772;2.718;2023-05-07T05:54:15;5.28;;;2.17;;
51459;SDS011;37534;39.772;2.718;2023-05-07T05:56:41;2.78;;;2.58;;
51459;SDS011;37534;39.772;2.718;2023-05-07T05:59:07;3.05;;;2.83;;
51459;SDS011;37534;39.772;2.718;2023-05-07T06:01:32;3.72;;;2.58;;
51459;SDS011;37534;39.772;2.718;2023-05-07T06:03:58;4.20;;;3.13;;
51459;SDS011;37534;39.772;2.718;2023-05-07T06:06:23;4.10;;;3.00;;
51459;SDS011;37534;39.772;2.718;2023-05-07T06:08:49;2.85;;;2.65;;
51459;SDS011;37534;39.772;2.718;2023-05-07T06:11:15;2.17;;;2.08;;
51459;SDS011;37534;39.772;2.718;2023-05-07T06:13:40;5.18;;;2.47;;
51459;SDS011;37534;39.772;2.718;2023-05-07T06:16:06;1.88;;;1.77;;
51459;SDS011;37534;39.772;2.718;2023-05-07T06:18:31;7.78;;;2.58;;
51459;SDS011;37534;39.772;2.718;2023-05-07T06:20:57;2.47;;;2.28;;
51459;SDS011;37534;39.772;2.718;2023-05-07T06:23:22;2.55;;;2.28;;
51459;SDS011;37534;39.772;2.718;2023-05-07T06:25:48;4.43;;;2.25;;
51459;SDS011;37534;39.772;2.718;2023-05-07T06:28:17;3.70;;;3.17;;
51459;SDS011;37534;39.772;2.718;2023-05-07T06:30:43;5.75;;;2.75;;
51459;SDS011;37534;39.772;2.718;2023-05-07T06:33:08;7.57;;;2.85;;
51459;SDS011;37534;39.772;2.718;2023-05-07T06:35:34;3.05;;;2.08;;
51459;SDS011;37534;39.772;2.718;2023-05-07T06:38:00;1.65;;;1.55;;
51459;SDS011;37534;39.772;2.718;2023-05-07T06:40:41;1.92;;;1.83;;
51459;SDS011;37534;39.772;2.718;2023-05-07T06:43:06;2.95;;;2.38;;
51459;SDS011;37534;39.772;2.718;2023-05-07T06:45:32;1.98;;;1.77;;
51459;SDS011;37534;39.772;2.718;2023-05-07T06:47:57;1.98;;;1.83;;
51459;SDS011;37534;39.772;2.718;2023-05-07T06:50:23;2.05;;;1.85;;
51459;SDS011;37534;39.772;2.718;2023-05-07T06:52:48;1.95;;;1.73;;
51459;SDS011;37534;39.772;2.718;2023-05-07T06:55:14;3.00;;;1.55;;
51459;SDS011;37534;39.772;2.718;2023-05-07T06:57:40;6.60;;;1.73;;
51459;SDS011;37534;39.772;2.718;2023-05-07T07:00:05;1.90;;;1.63;;
51459;SDS011;37534;39.772;2.718;2023-05-07T07:02:33;1.25;;;1.25;;
51459;SDS011;37534;39.772;2.718;2023-05-07T07:04:59;2.42;;;1.50;;
51459;SDS011;37534;39.772;2.718;2023-05-07T07:07:25;2.72;;;1.73;;
51459;SDS011;37534;39.772;2.718;2023-05-07T07:09:50;1.48;;;1.38;;
51459;SDS011;37534;39.772;2.718;2023-05-07T07:12:16;1.52;;;1.40;;
51459;SDS011;37534;39.772;2.718;2023-05-07T07:14:42;1.83;;;1.20;;
51459;SDS011;37534;39.772;2.718;2023-05-07T07:17:07;2.03;;;1.40;;
51459;SDS011;37534;39.772;2.718;2023-05-07T07:19:33;1.75;;;1.50;;
51459;SDS011;37534;39.772;2.718;2023-05-07T07:21:58;4.85;;;1.42;;
51459;SDS011;37534;39.772;2.718;2023-05-07T07:24:24;1.00;;;1.00;;
51459;SDS011;37534;39.772;2.718;2023-05-07T07:26:49;1.23;;;1.08;;
51459;SDS011;37534;39.772;2.718;2023-05-07T07:29:15;1.30;;;1.20;;
51459;SDS011;37534;39.772;2.718;2023-05-07T07:31:41;2.88;;;1.50;;
51459;SDS011;37534;39.772;2.718;2023-05-07T07:34:06;1.85;;;1.55;;
51459;SDS011;37534;39.772;2.718;2023-05-07T07:36:32;1.27;;;1.15;;
51459;SDS011;37534;39.772;2.718;2023-05-07T07:38:57;1.27;;;1.17;;
51459;SDS011;37534;39.772;2.718;2023-05-07T07:41:23;1.23;;;1.10;;
51459;SDS011;37534;39.772;2.718;2023-05-07T07:43:51;2.92;;;1.48;;
51459;SDS011;37534;39.772;2.718;2023-05-07T07:46:37;1.92;;;1.30;;
51459;SDS011;37534;39.772;2.718;2023-05-07T07:49:03;1.65;;;1.33;;
51459;SDS011;37534;39.772;2.718;2023-05-07T07:51:34;1.23;;;1.20;;
51459;SDS011;37534;39.772;2.718;2023-05-07T07:54:00;0.90;;;0.90;;
51459;SDS011;37534;39.772;2.718;2023-05-07T07:56:27;3.63;;;2.20;;
51459;SDS011;37534;39.772;2.718;2023-05-07T07:58:53;5.90;;;1.83;;
51459;SDS011;37534;39.772;2.718;2023-05-07T08:01:18;1.70;;;1.60;;
51459;SDS011;37534;39.772;2.718;2023-05-07T08:03:44;1.25;;;1.05;;
51459;SDS011;37534;39.772;2.718;2023-05-07T08:06:10;1.52;;;1.13;;
51459;SDS011;37534;39.772;2.718;2023-05-07T08:08:35;1.02;;;1.02;;
51459;SDS011;37534;39.772;2.718;2023-05-07T08:11:01;1.63;;;1.05;;
51459;SDS011;37534;39.772;2.718;2023-05-07T08:13:27;1.90;;;1.23;;
51459;SDS011;37534;39.772;2.718;2023-05-07T08:15:52;3.17;;;2.63;;
51459;SDS011;37534;39.772;2.718;2023-05-07T08:18:18;2.22;;;1.58;;
51459;SDS011;37534;39.772;2.718;2023-05-07T08:20:43;4.57;;;2.67;;
51459;SDS011;37534;39.772;2.718;2023-05-07T08:23:09;14.80;;;9.32;;
51459;SDS011;37534;39.772;2.718;2023-05-07T08:25:34;9.30;;;5.45;;
51459;SDS011;37534;39.772;2.718;2023-05-07T08:28:00;26.65;;;14.40;;
51459;SDS011;37534;39.772;2.718;2023-05-07T08:30:26;9.40;;;6.97;;
51459;SDS011;37534;39.772;2.718;2023-05-07T08:32:52;16.73;;;4.70;;
51459;SDS011;37534;39.772;2.718;2023-05-07T08:35:17;10.05;;;3.45;;
51459;SDS011;37534;39.772;2.718;2023-05-07T08:37:43;6.88;;;3.47;;
51459;SDS011;37534;39.772;2.718;2023-05-07T08:40:09;5.03;;;3.33;;
51459;SDS011;37534;39.772;2.718;2023-05-07T08:42:35;3.00;;;2.35;;
51459;SDS011;37534;39.772;2.718;2023-05-07T08:45:03;5.78;;;1.65;;
51459;SDS011;37534;39.772;2.718;2023-05-07T08:47:34;1.75;;;1.65;;
51459;SDS011;37534;39.772;2.718;2023-05-07T08:50:05;1.00;;;1.00;;
51459;SDS011;37534;39.772;2.718;2023-05-07T08:52:32;1.05;;;1.02;;
51459;SDS011;37534;39.772;2.718;2023-05-07T08:54:58;2.00;;;1.23;;
51459;SDS011;37534;39.772;2.718;2023-05-07T08:57:24;4.68;;;1.30;;
51459;SDS011;37534;39.772;2.718;2023-05-07T08:59:49;1.67;;;1.13;;
51459;SDS011;37534;39.772;2.718;2023-05-07T09:02:15;1.35;;;1.25;;
51459;SDS011;37534;39.772;2.718;2023-05-07T09:04:41;1.90;;;0.82;;
51459;SDS011;37534;39.772;2.718;2023-05-07T09:07:07;1.67;;;1.10;;
51459;SDS011;37534;39.772;2.718;2023-05-07T09:09:33;3.38;;;0.98;;
51459;SDS011;37534;39.772;2.718;2023-05-07T09:11:59;0.98;;;0.82;;
51459;SDS011;37534;39.772;2.718;2023-05-07T09:14:25;2.20;;;1.13;;
51459;SDS011;37534;39.772;2.718;2023-05-07T09:16:54;1.50;;;1.40;;
51459;SDS011;37534;39.772;2.718;2023-05-07T09:19:23;6.30;;;1.05;;
51459;SDS011;37534;39.772;2.718;2023-05-07T09:22:01;2.35;;;1.80;;
51459;SDS011;37534;39.772;2.718;2023-05-07T09:24:27;10.50;;;2.20;;
51459;SDS011;37534;39.772;2.718;2023-05-07T09:26:57;5.65;;;1.58;;
51459;SDS011;37534;39.772;2.718;2023-05-07T09:29:23;2.78;;;2.13;;
51459;SDS011;37534;39.772;2.718;2023-05-07T09:31:48;4.57;;;2.25;;
51459;SDS011;37534;39.772;2.718;2023-05-07T09:34:14;3.50;;;2.28;;
51459;SDS011;37534;39.772;2.718;2023-05-07T09:36:41;3.03;;;0.90;;
51459;SDS011;37534;39.772;2.718;2023-05-07T09:39:07;2.05;;;1.13;;
51459;SDS011;37534;39.772;2.718;2023-05-07T09:41:33;3.33;;;1.13;;
51459;SDS011;37534;39.772;2.718;2023-05-07T09:44:07;3.22;;;1.40;;
51459;SDS011;37534;39.772;2.718;2023-05-07T09:46:34;5.47;;;1.30;;
51459;SDS011;37534;39.772;2.718;2023-05-07T09:49:03;1.48;;;1.33;;
51459;SDS011;37534;39.772;2.718;2023-05-07T09:51:38;1.65;;;1.27;;
51459;SDS011;37534;39.772;2.718;2023-05-07T09:54:08;4.40;;;1.50;;
51459;SDS011;37534;39.772;2.718;2023-05-07T09:56:34;3.75;;;1.60;;
51459;SDS011;37534;39.772;2.718;2023-05-07T09:59:02;3.38;;;1.80;;
51459;SDS011;37534;39.772;2.718;2023-05-07T10:01:29;3.63;;;1.83;;
51459;SDS011;37534;39.772;2.718;2023-05-07T10:03:56;1.90;;;1.30;;
51459;SDS011;37534;39.772;2.718;2023-05-07T10:06:24;1.75;;;1.65;;
51459;SDS011;37534;39.772;2.718;2023-05-07T10:08:51;2.03;;;1.80;;
51459;SDS011;37534;39.772;2.718;2023-05-07T10:11:18;2.80;;;1.85;;
51459;SDS011;37534;39.772;2.718;2023-05-07T10:13:44;4.28;;;2.10;;
51459;SDS011;37534;39.772;2.718;2023-05-07T10:16:11;2.67;;;1.52;;
51459;SDS011;37534;39.772;2.718;2023-05-07T10:18:37;7.85;;;2.58;;
51459;SDS011;37534;39.772;2.718;2023-05-07T10:21:11;6.82;;;3.45;;
51459;SDS011;37534;39.772;2.718;2023-05-07T10:23:41;4.10;;;2.17;;
51459;SDS011;37534;39.772;2.718;2023-05-07T10:26:17;4.70;;;1.75;;
51459;SDS011;37534;39.772;2.718;2023-05-07T10:28:46;6.88;;;2.08;;
51459;SDS011;37534;39.772;2.718;2023-05-07T10:34:23;3.35;;;2.00;;
51459;SDS011;37534;39.772;2.718;2023-05-07T10:36:51;4.25;;;2.20;;
51459;SDS011;37534;39.772;2.718;2023-05-07T10:39:19;4.35;;;2.35;;
51459;SDS011;37534;39.772;2.718;2023-05-07T10:41:45;3.55;;;1.85;;
51459;SDS011;37534;39.772;2.718;2023-05-07T10:44:11;5.95;;;1.90;;
51459;SDS011;37534;39.772;2.718;2023-05-07T10:46:37;2.50;;;1.98;;
51459;SDS011;37534;39.772;2.718;2023-05-07T10:51:29;4.38;;;1.95;;
51459;SDS011;37534;39.772;2.718;2023-05-07T10:56:36;10.55;;;2.28;;
51459;SDS011;37534;39.772;2.718;2023-05-07T11:01:57;3.47;;;1.75;;
51459;SDS011;37534;39.772;2.718;2023-05-07T11:04:29;4.65;;;1.88;;
51459;SDS011;37534;39.772;2.718;2023-05-07T11:12:45;4.35;;;1.85;;
51459;SDS011;37534;39.772;2.718;2023-05-07T11:15:15;3.47;;;1.60;;
51459;SDS011;37534;39.772;2.718;2023-05-07T11:17:59;3.15;;;1.83;;
51459;SDS011;37534;39.772;2.718;2023-05-07T11:26:01;15.77;;;1.27;;
51459;SDS011;37534;39.772;2.718;2023-05-07T11:28:35;3.70;;;1.25;;
51459;SDS011;37534;39.772;2.718;2023-05-07T11:31:03;6.75;;;2.75;;
51459;SDS011;37534;39.772;2.718;2023-05-07T11:33:29;3.25;;;2.42;;
51459;SDS011;37534;39.772;2.718;2023-05-07T11:35:55;13.73;;;3.22;;
51459;SDS011;37534;39.772;2.718;2023-05-07T11:38:22;13.02;;;2.00;;
51459;SDS011;37534;39.772;2.718;2023-05-07T11:40:48;2.35;;;1.90;;
51459;SDS011;37534;39.772;2.718;2023-05-07T11:43:15;4.03;;;1.80;;
51459;SDS011;37534;39.772;2.718;2023-05-07T11:45:40;7.60;;;2.33;;
51459;SDS011;37534;39.772;2.718;2023-05-07T11:48:06;10.35;;;2.60;;
51459;SDS011;37534;39.772;2.718;2023-05-07T11:50:31;3.88;;;1.77;;
51459;SDS011;37534;39.772;2.718;2023-05-07T11:52:57;8.15;;;1.58;;
51459;SDS011;37534;39.772;2.718;2023-05-07T11:55:23;2.30;;;1.65;;
51459;SDS011;37534;39.772;2.718;2023-05-07T11:57:50;5.90;;;1.45;;
51459;SDS011;37534;39.772;2.718;2023-05-07T12:00:15;2.00;;;1.73;;
51459;SDS011;37534;39.772;2.718;2023-05-07T12:02:42;5.35;;;2.28;;
51459;SDS011;37534;39.772;2.718;2023-05-07T12:05:08;4.38;;;2.45;;
51459;SDS011;37534;39.772;2.718;2023-05-07T12:07:34;2.50;;;1.90;;
51459;SDS011;37534;39.772;2.718;2023-05-07T12:10:06;2.20;;;1.45;;
51459;SDS011;37534;39.772;2.718;2023-05-07T12:12:37;2.17;;;1.55;;
51459;SDS011;37534;39.772;2.718;2023-05-07T12:15:04;2.63;;;1.75;;
51459;SDS011;37534;39.772;2.718;2023-05-07T12:17:30;2.30;;;1.50;;
51459;SDS011;37534;39.772;2.718;2023-05-07T12:19:56;3.17;;;2.10;;
51459;SDS011;37534;39.772;2.718;2023-05-07T12:22:22;3.33;;;1.83;;
51459;SDS011;37534;39.772;2.718;2023-05-07T12:24:48;4.22;;;1.63;;
51459;SDS011;37534;39.772;2.718;2023-05-07T12:27:21;3.33;;;2.35;;
51459;SDS011;37534;39.772;2.718;2023-05-07T12:29:47;3.33;;;1.85;;
51459;SDS011;37534;39.772;2.718;2023-05-07T12:32:15;10.43;;;1.95;;
51459;SDS011;37534;39.772;2.718;2023-05-07T12:34:42;3.88;;;1.85;;
51459;SDS011;37534;39.772;2.718;2023-05-07T12:37:07;3.25;;;1.65;;
51459;SDS011;37534;39.772;2.718;2023-05-07T12:39:33;7.95;;;2.25;;
51459;SDS011;37534;39.772;2.718;2023-05-07T12:41:59;5.22;;;1.55;;
51459;SDS011;37534;39.772;2.718;2023-05-07T12:44:25;4.43;;;1.90;;
51459;SDS011;37534;39.772;2.718;2023-05-07T12:46:55;5.55;;;1.50;;
51459;SDS011;37534;39.772;2.718;2023-05-07T12:49:20;4.28;;;2.13;;
51459;SDS011;37534;39.772;2.718;2023-05-07T12:51:46;3.63;;;1.65;;
51459;SDS011;37534;39.772;2.718;2023-05-07T12:54:13;3.05;;;1.88;;
51459;SDS011;37534;39.772;2.718;2023-05-07T12:56:59;2.70;;;1.80;;
51459;SDS011;37534;39.772;2.718;2023-05-07T12:59:36;4.65;;;1.67;;
51459;SDS011;37534;39.772;2.718;2023-05-07T13:02:04;5.35;;;1.88;;
51459;SDS011;37534;39.772;2.718;2023-05-07T13:04:30;2.30;;;1.50;;
51459;SDS011;37534;39.772;2.718;2023-05-07T13:06:55;5.18;;;1.90;;
51459;SDS011;37534;39.772;2.718;2023-05-07T13:09:21;3.58;;;1.73;;
51459;SDS011;37534;39.772;2.718;2023-05-07T13:11:47;2.13;;;1.85;;
51459;SDS011;37534;39.772;2.718;2023-05-07T13:14:12;2.25;;;1.75;;
51459;SDS011;37534;39.772;2.718;2023-05-07T13:16:38;7.95;;;2.17;;
51459;SDS011;37534;39.772;2.718;2023-05-07T13:19:03;1.92;;;1.58;;
51459;SDS011;37534;39.772;2.718;2023-05-07T13:21:29;9.88;;;1.90;;
51459;SDS011;37534;39.772;2.718;2023-05-07T13:23:57;1.67;;;1.40;;
51459;SDS011;37534;39.772;2.718;2023-05-07T13:26:23;3.90;;;1.95;;
51459;SDS011;37534;39.772;2.718;2023-05-07T13:28:49;3.78;;;1.80;;
51459;SDS011;37534;39.772;2.718;2023-05-07T13:31:14;5.07;;;3.63;;
51459;SDS011;37534;39.772;2.718;2023-05-07T13:33:40;6.05;;;4.03;;
51459;SDS011;37534;39.772;2.718;2023-05-07T13:36:05;9.43;;;4.72;;
51459;SDS011;37534;39.772;2.718;2023-05-07T13:38:31;10.57;;;6.45;;
51459;SDS011;37534;39.772;2.718;2023-05-07T13:40:57;11.13;;;4.78;;
51459;SDS011;37534;39.772;2.718;2023-05-07T13:43:23;15.63;;;4.07;;
51459;SDS011;37534;39.772;2.718;2023-05-07T13:45:49;4.68;;;2.90;;
51459;SDS011;37534;39.772;2.718;2023-05-07T13:48:15;4.15;;;2.88;;
51459;SDS011;37534;39.772;2.718;2023-05-07T13:50:40;3.47;;;2.85;;
51459;SDS011;37534;39.772;2.718;2023-05-07T13:53:07;3.72;;;3.03;;
51459;SDS011;37534;39.772;2.718;2023-05-07T13:55:33;3.10;;;2.22;;
51459;SDS011;37534;39.772;2.718;2023-05-07T13:57:59;3.10;;;2.38;;
51459;SDS011;37534;39.772;2.718;2023-05-07T14:00:26;4.47;;;2.25;;
51459;SDS011;37534;39.772;2.718;2023-05-07T14:02:53;4.40;;;2.03;;
51459;SDS011;37534;39.772;2.718;2023-05-07T14:05:19;4.63;;;2.15;;
51459;SDS011;37534;39.772;2.718;2023-05-07T14:07:45;1.73;;;1.60;;
51459;SDS011;37534;39.772;2.718;2023-05-07T14:10:12;1.73;;;1.35;;
51459;SDS011;37534;39.772;2.718;2023-05-07T14:12:38;1.50;;;1.40;;
51459;SDS011;37534;39.772;2.718;2023-05-07T14:15:03;2.60;;;1.40;;
51459;SDS011;37534;39.772;2.718;2023-05-07T14:17:29;1.83;;;1.20;;
51459;SDS011;37534;39.772;2.718;2023-05-07T14:19:55;3.88;;;1.50;;
51459;SDS011;37534;39.772;2.718;2023-05-07T14:22:21;9.63;;;1.58;;
51459;SDS011;37534;39.772;2.718;2023-05-07T14:24:47;6.93;;;1.52;;
51459;SDS011;37534;39.772;2.718;2023-05-07T14:27:14;1.35;;;1.25;;
51459;SDS011;37534;39.772;2.718;2023-05-07T14:29:40;2.30;;;1.42;;
51459;SDS011;37534;39.772;2.718;2023-05-07T14:32:06;3.03;;;1.40;;
51459;SDS011;37534;39.772;2.718;2023-05-07T14:34:31;2.20;;;1.52;;
51459;SDS011;37534;39.772;2.718;2023-05-07T14:36:57;1.88;;;1.50;;
51459;SDS011;37534;39.772;2.718;2023-05-07T14:39:23;1.58;;;1.40;;
51459;SDS011;37534;39.772;2.718;2023-05-07T14:41:48;2.45;;;1.33;;
51459;SDS011;37534;39.772;2.718;2023-05-07T14:44:14;1.52;;;1.30;;
51459;SDS011;37534;39.772;2.718;2023-05-07T14:46:39;2.53;;;1.52;;
51459;SDS011;37534;39.772;2.718;2023-05-07T14:49:05;5.35;;;1.63;;
51459;SDS011;37534;39.772;2.718;2023-05-07T14:51:32;3.22;;;1.80;;
51459;SDS011;37534;39.772;2.718;2023-05-07T14:53:58;3.05;;;1.80;;
51459;SDS011;37534;39.772;2.718;2023-05-07T14:56:23;2.65;;;1.73;;
51459;SDS011;37534;39.772;2.718;2023-05-07T14:58:49;3.17;;;1.42;;
51459;SDS011;37534;39.772;2.718;2023-05-07T15:01:15;1.75;;;1.40;;
51459;SDS011;37534;39.772;2.718;2023-05-07T15:03:41;5.13;;;1.83;;
51459;SDS011;37534;39.772;2.718;2023-05-07T15:06:06;5.03;;;2.60;;